createdAt,value
2023-04-25T00:04:07.351Z,45.03
2023-04-25T00:09:11.942Z,45.36
2023-04-25T00:14:14.776Z,45.89
2023-04-25T00:19:17.282Z,46.25
2023-04-25T00:24:20.507Z,46.56
2023-04-25T00:29:23.020Z,46.90
2023-04-25T00:34:25.671Z,47.02
2023-04-25T00:39:28.450Z,47.44
2023-04-25T00:44:33.264Z,47.87
2023-04-25T00:49:36.115Z,48.47
2023-04-25T00:54:39.187Z,49.16
2023-04-25T00:59:47.214Z,49.41
2023-04-25T01:04:50.454Z,49.63
2023-04-25T01:09:53.598Z,50.38
2023-04-25T01:14:56.576Z,50.57
2023-04-25T01:19:59.370Z,50.66
2023-04-25T01:25:02.886Z,50.83
2023-04-25T01:30:07.757Z,50.59
2023-04-25T01:35:12.553Z,50.56
2023-04-25T01:40:15.992Z,50.83
2023-04-25T01:45:19.216Z,50.92
2023-04-25T01:50:22.085Z,51.32
2023-04-25T01:55:25.764Z,51.57
2023-04-25T02:00:39.094Z,51.97
2023-04-25T02:05:42.081Z,51.75
2023-04-25T02:10:48.207Z,51.90
2023-04-25T02:15:54.491Z,51.86
2023-04-25T02:20:57.464Z,51.92
2023-04-25T02:26:00.657Z,51.89
2023-04-25T02:31:03.925Z,50.69
2023-04-25T02:36:07.241Z,48.99
2023-04-25T02:41:10.022Z,49.03
2023-04-25T02:46:13.091Z,48.66
2023-04-25T02:51:17.753Z,48.76
2023-04-25T02:56:20.959Z,48.96
2023-04-25T03:01:25.324Z,48.17
2023-04-25T03:06:29.002Z,47.90
2023-04-25T03:11:31.924Z,47.24
2023-04-25T03:16:35.533Z,46.18
2023-04-25T03:21:38.567Z,44.64
2023-04-25T03:26:41.241Z,43.45
2023-04-25T03:31:45.096Z,42.39
2023-04-25T03:36:48.775Z,41.31
2023-04-25T03:41:55.292Z,40.89
2023-04-25T03:46:57.997Z,40.05
2023-04-25T03:52:01.468Z,39.45
2023-04-25T03:57:09.273Z,38.60
2023-04-25T04:02:14.812Z,38.35
2023-04-25T04:07:18.026Z,38.18
2023-04-25T04:12:23.491Z,38.84
2023-04-25T04:17:27.325Z,39.45
2023-04-25T04:22:30.631Z,39.31
2023-04-25T04:27:36.712Z,39.26
2023-04-25T04:32:53.748Z,38.87
2023-04-25T04:37:57.801Z,38.60
2023-04-25T04:43:04.021Z,38.20
2023-04-25T04:48:07.473Z,38.07
2023-04-25T04:53:24.529Z,37.80
2023-04-25T04:58:59.457Z,38.01
2023-04-25T05:04:23.915Z,38.41
2023-04-25T05:09:56.108Z,38.57
2023-04-25T05:15:17.602Z,38.34
2023-04-25T05:20:43.234Z,38.31
2023-04-25T05:26:15.039Z,38.24
2023-04-25T05:31:38.060Z,38.48
2023-04-25T05:36:49.520Z,38.43
2023-04-25T05:41:52.349Z,38.13
2023-04-25T05:47:15.278Z,38.37
2023-04-25T05:52:31.837Z,38.02
2023-04-25T05:57:47.384Z,37.12
2023-04-25T06:02:50.984Z,36.64
2023-04-25T06:07:54.776Z,36.54
2023-04-25T06:12:58.428Z,35.73
2023-04-25T06:18:01.897Z,35.08
2023-04-25T06:23:04.685Z,34.78
2023-04-25T06:28:23.142Z,34.45
2023-04-25T06:33:26.054Z,33.67
2023-04-25T06:38:30.510Z,33.10
2023-04-25T06:43:34.615Z,32.80
2023-04-25T06:48:56.213Z,32.42
2023-04-25T06:53:59.228Z,32.56
2023-04-25T06:59:13.112Z,31.39
2023-04-25T07:04:17.296Z,31.39
2023-04-25T07:09:27.494Z,30.86
2023-04-25T07:14:31.465Z,30.56
2023-04-25T07:19:38.989Z,29.79
2023-04-25T07:24:42.707Z,29.15
2023-04-25T07:29:49.370Z,29.10
2023-04-25T07:34:52.242Z,29.35
2023-04-25T07:39:55.450Z,29.36
2023-04-25T07:44:58.567Z,29.06
2023-04-25T07:50:01.576Z,28.95
2023-04-25T07:55:06.449Z,28.64
2023-04-25T08:00:19.454Z,27.87
2023-04-25T08:05:29.232Z,28.42
2023-04-25T08:10:38.395Z,27.65
2023-04-25T08:15:41.583Z,27.35
2023-04-25T08:20:44.771Z,27.82
2023-04-25T08:25:49.100Z,27.01
2023-04-25T08:30:54.904Z,27.01
2023-04-25T08:35:58.942Z,28.00
2023-04-25T08:41:03.550Z,29.26
2023-04-25T08:46:07.104Z,29.85
2023-04-25T08:51:26.947Z,29.91
2023-04-25T08:56:31.056Z,28.57
2023-04-25T09:01:34.832Z,28.93
2023-04-25T09:06:37.881Z,28.54
2023-04-25T09:11:41.864Z,28.26
2023-04-25T09:16:56.447Z,29.48
2023-04-25T09:22:27.997Z,29.17
2023-04-25T09:27:30.707Z,30.19
2023-04-25T09:32:44.372Z,29.60
2023-04-25T09:37:47.569Z,28.59
2023-04-25T09:43:26.496Z,28.35
2023-04-25T09:48:30.733Z,29.33
2023-04-25T09:53:41.104Z,28.61
2023-04-25T09:58:59.341Z,28.58
2023-04-25T10:04:08.006Z,27.96
2023-04-25T10:09:28.809Z,28.18
2023-04-25T10:14:32.315Z,27.84
2023-04-25T10:19:35.110Z,27.86
2023-04-25T10:24:39.605Z,26.86
2023-04-25T10:29:44.404Z,27.26
2023-04-25T10:34:49.570Z,27.17
2023-04-25T10:39:54.334Z,27.09
2023-04-25T10:45:06.624Z,27.34
2023-04-25T10:50:10.587Z,27.11
2023-04-25T10:55:13.709Z,27.20
2023-04-25T11:00:25.674Z,27.04
2023-04-25T11:05:30.607Z,27.12
2023-04-25T11:10:36.823Z,27.48
2023-04-25T11:15:39.701Z,27.15
2023-04-25T11:20:44.445Z,27.54
2023-04-25T11:25:48.129Z,28.04
2023-04-25T11:30:53.502Z,27.34
2023-04-25T11:35:57.526Z,27.84
2023-04-25T11:41:01.019Z,27.65
2023-04-25T11:46:09.466Z,27.84
2023-04-25T11:51:23.110Z,27.91
2023-04-25T11:56:25.768Z,29.14
2023-04-25T12:01:36.454Z,29.07
2023-04-25T12:06:41.521Z,29.49
2023-04-25T12:12:07.265Z,29.93
2023-04-25T12:17:10.890Z,29.35
2023-04-25T12:22:25.910Z,28.69
2023-04-25T12:27:29.782Z,28.23
2023-04-25T12:32:33.250Z,28.20
2023-04-25T12:37:36.489Z,28.56
2023-04-25T12:42:39.196Z,28.39
2023-04-25T12:47:42.753Z,28.06
2023-04-25T12:52:45.825Z,28.22
2023-04-25T12:57:49.130Z,28.77
2023-04-25T13:02:52.553Z,29.09
2023-04-25T13:07:55.930Z,28.99
2023-04-25T13:12:59.089Z,28.95
2023-04-25T13:18:06.844Z,29.25
2023-04-25T13:23:12.310Z,29.02
2023-04-25T13:28:18.911Z,29.40
2023-04-25T13:33:22.073Z,30.66
2023-04-25T13:38:25.542Z,31.06
2023-04-25T13:43:28.623Z,30.80
2023-04-25T13:48:35.245Z,30.46
2023-04-25T13:53:38.451Z,30.02
2023-04-25T13:58:41.829Z,30.31
2023-04-25T14:03:45.679Z,30.84
2023-04-25T14:08:49.040Z,30.86
2023-04-25T14:13:52.961Z,31.24
2023-04-25T14:18:55.951Z,31.14
2023-04-25T14:23:59.104Z,31.59
2023-04-25T14:29:02.184Z,32.72
2023-04-25T14:34:04.826Z,32.55
2023-04-25T14:39:10.160Z,32.80
2023-04-25T14:44:13.291Z,32.91
2023-04-25T14:49:16.388Z,33.03
2023-04-25T14:54:19.618Z,32.65
2023-04-25T14:59:22.694Z,31.72
2023-04-25T15:04:25.390Z,31.92
2023-04-25T15:09:29.751Z,32.65
2023-04-25T15:14:34.924Z,32.85
2023-04-25T15:19:38.283Z,32.67
2023-04-25T15:24:41.338Z,31.95
2023-04-25T15:29:44.837Z,32.01
2023-04-25T15:34:48.088Z,32.23
2023-04-25T15:40:07.470Z,32.05
2023-04-25T15:45:18.061Z,32.41
2023-04-25T15:50:22.303Z,32.19
2023-04-25T15:55:27.099Z,32.32
2023-04-25T16:00:29.980Z,32.16
2023-04-25T16:05:32.815Z,32.51
2023-04-25T16:10:38.956Z,33.03
2023-04-25T16:15:45.133Z,33.51
2023-04-25T16:20:53.337Z,33.76
2023-04-25T16:26:02.932Z,34.41
2023-04-25T16:31:15.174Z,34.36
2023-04-25T16:36:19.843Z,34.46
2023-04-25T16:41:22.355Z,35.18
2023-04-25T16:46:32.986Z,35.88
2023-04-25T16:51:46.700Z,35.84
2023-04-25T16:57:01.485Z,35.78
2023-04-25T17:02:04.558Z,35.90
2023-04-25T17:07:15.933Z,36.43
2023-04-25T17:12:29.432Z,37.01
2023-04-25T17:17:35.294Z,37.15
2023-04-25T17:22:38.997Z,37.13
2023-04-25T17:27:42.448Z,37.16
2023-04-25T17:32:46.587Z,37.48
2023-04-25T17:37:53.101Z,37.44
2023-04-25T17:43:09.297Z,37.84
2023-04-25T17:48:34.223Z,37.59
2023-04-25T17:53:39.608Z,38.69
2023-04-25T17:58:42.381Z,40.71
2023-04-25T18:03:47.091Z,42.00
2023-04-25T18:08:50.687Z,43.50
2023-04-25T18:13:56.908Z,46.41
2023-04-25T18:19:11.857Z,48.38
2023-04-25T18:24:20.800Z,49.79
2023-04-25T18:29:33.199Z,50.35
2023-04-25T18:34:37.820Z,50.44
2023-04-25T18:39:41.312Z,50.67
2023-04-25T18:44:44.242Z,51.11
2023-04-25T18:49:48.019Z,52.29
2023-04-25T18:54:51.382Z,52.57
2023-04-25T18:59:54.295Z,52.97
2023-04-25T19:04:57.533Z,53.35
2023-04-25T19:10:02.891Z,54.01
2023-04-25T19:15:07.239Z,54.91
2023-04-25T19:20:11.154Z,55.54
2023-04-25T19:25:14.282Z,55.86
2023-04-25T19:30:17.550Z,56.93
2023-04-25T19:35:20.607Z,57.52
2023-04-25T19:40:23.644Z,57.77
2023-04-25T19:45:26.978Z,58.89
2023-04-25T19:50:29.778Z,59.10
2023-04-25T19:55:36.692Z,58.90
2023-04-25T20:00:40.178Z,59.28
2023-04-25T20:05:42.809Z,59.66
2023-04-25T20:10:52.114Z,60.53
2023-04-25T20:15:55.634Z,60.55
2023-04-25T20:20:58.716Z,61.10
2023-04-25T20:26:01.817Z,60.95
2023-04-25T20:31:05.480Z,61.46
2023-04-25T20:36:09.174Z,62.35
2023-04-25T20:41:12.913Z,62.51
2023-04-25T20:46:17.381Z,62.82
2023-04-25T20:51:22.178Z,64.05
2023-04-25T20:56:28.966Z,64.89
2023-04-25T21:01:32.571Z,65.28
2023-04-25T21:06:36.617Z,65.66
2023-04-25T21:11:40.081Z,66.28
2023-04-25T21:16:43.354Z,66.28
2023-04-25T21:21:47.484Z,66.72
2023-04-25T21:26:51.492Z,67.54
2023-04-25T21:31:55.651Z,67.97
2023-04-25T21:36:58.619Z,67.64
2023-04-25T21:42:02.270Z,67.94
2023-04-25T21:47:06.241Z,68.48
2023-04-25T21:52:09.866Z,68.58
2023-04-25T21:57:12.437Z,67.99
2023-04-25T22:02:15.249Z,67.60
2023-04-25T22:07:18.192Z,67.31
2023-04-25T22:12:20.794Z,68.08
2023-04-25T22:17:27.070Z,68.29
2023-04-25T22:22:29.705Z,69.04
2023-04-25T22:27:32.531Z,69.10
2023-04-25T22:32:36.554Z,70.43
2023-04-25T22:37:40.839Z,72.27
2023-04-25T22:42:44.384Z,73.67
2023-04-25T22:47:47.450Z,75.75
2023-04-25T22:52:50.100Z,76.58
2023-04-25T22:57:53.290Z,78.37
2023-04-25T23:02:56.166Z,81.33
2023-04-25T23:07:59.180Z,82.78
2023-04-25T23:13:01.786Z,82.54
2023-04-25T23:18:04.645Z,83.48
2023-04-25T23:23:07.612Z,83.62
2023-04-25T23:28:10.157Z,84.17
2023-04-25T23:33:12.922Z,85.09
2023-04-25T23:38:16.475Z,87.70
2023-04-25T23:43:19.240Z,89.50
2023-04-25T23:48:21.813Z,88.90
2023-04-25T23:53:24.400Z,89.68
2023-04-25T23:58:26.982Z,91.58
